sensor_id;sensor_type;location;lat;lon;timestamp;P1;durP1;ratioP1;P2;durP2;ratioP2
38603;SDS011;24924;50.054;8.790;2023-07-29T00:01:51;3.42;;;1.67;;
38603;SDS011;24924;50.054;8.790;2023-07-29T00:04:19;4.05;;;1.90;;
38603;SDS011;24924;50.054;8.790;2023-07-29T00:06:45;3.60;;;2.00;;
38603;SDS011;24924;50.054;8.790;2023-07-29T00:09:11;3.87;;;2.00;;
38603;SDS011;24924;50.054;8.790;2023-07-29T00:11:37;4.45;;;2.25;;
38603;SDS011;24924;50.054;8.790;2023-07-29T00:14:03;4.07;;;2.00;;
38603;SDS011;24924;50.054;8.790;2023-07-29T00:16:29;3.70;;;1.90;;
38603;SDS011;24924;50.054;8.790;2023-07-29T00:18:55;3.70;;;2.00;;
38603;SDS011;24924;50.054;8.790;2023-07-29T00:21:20;3.27;;;1.70;;
38603;SDS011;24924;50.054;8.790;2023-07-29T00:23:46;4.30;;;2.05;;
38603;SDS011;24924;50.054;8.790;2023-07-29T00:26:12;3.70;;;1.95;;
38603;SDS011;24924;50.054;8.790;2023-07-29T00:28:38;3.90;;;1.85;;
38603;SDS011;24924;50.054;8.790;2023-07-29T00:31:04;4.00;;;1.80;;
38603;SDS011;24924;50.054;8.790;2023-07-29T00:33:30;3.97;;;2.10;;
38603;SDS011;24924;50.054;8.790;2023-07-29T00:35:55;3.83;;;1.77;;
38603;SDS011;24924;50.054;8.790;2023-07-29T00:38:22;3.97;;;1.88;;
38603;SDS011;24924;50.054;8.790;2023-07-29T00:40:48;3.45;;;1.65;;
38603;SDS011;24924;50.054;8.790;2023-07-29T00:43:15;3.85;;;2.20;;
38603;SDS011;24924;50.054;8.790;2023-07-29T00:45:41;3.57;;;1.70;;
38603;SDS011;24924;50.054;8.790;2023-07-29T00:48:09;3.95;;;2.03;;
38603;SDS011;24924;50.054;8.790;2023-07-29T00:50:35;3.40;;;1.73;;
38603;SDS011;24924;50.054;8.790;2023-07-29T00:53:01;3.23;;;1.57;;
38603;SDS011;24924;50.054;8.790;2023-07-29T00:55:27;3.30;;;1.60;;
38603;SDS011;24924;50.054;8.790;2023-07-29T00:57:53;3.42;;;1.52;;
38603;SDS011;24924;50.054;8.790;2023-07-29T01:00:19;3.95;;;2.00;;
38603;SDS011;24924;50.054;8.790;2023-07-29T01:02:46;3.80;;;1.80;;
38603;SDS011;24924;50.054;8.790;2023-07-29T01:05:13;3.92;;;2.03;;
38603;SDS011;24924;50.054;8.790;2023-07-29T01:07:47;4.03;;;1.90;;
38603;SDS011;24924;50.054;8.790;2023-07-29T01:10:46;3.67;;;2.00;;
38603;SDS011;24924;50.054;8.790;2023-07-29T01:16:39;5.20;;;2.53;;
38603;SDS011;24924;50.054;8.790;2023-07-29T01:19:08;3.40;;;1.70;;
38603;SDS011;24924;50.054;8.790;2023-07-29T01:21:59;3.33;;;1.80;;
38603;SDS011;24924;50.054;8.790;2023-07-29T01:24:28;3.70;;;2.00;;
38603;SDS011;24924;50.054;8.790;2023-07-29T01:26:54;3.90;;;1.93;;
38603;SDS011;24924;50.054;8.790;2023-07-29T01:29:20;5.40;;;1.73;;
38603;SDS011;24924;50.054;8.790;2023-07-29T01:31:46;3.65;;;2.05;;
38603;SDS011;24924;50.054;8.790;2023-07-29T01:34:22;3.90;;;1.98;;
38603;SDS011;24924;50.054;8.790;2023-07-29T01:36:58;4.20;;;2.10;;
38603;SDS011;24924;50.054;8.790;2023-07-29T01:39:27;3.70;;;2.20;;
38603;SDS011;24924;50.054;8.790;2023-07-29T01:41:57;3.40;;;1.52;;
38603;SDS011;24924;50.054;8.790;2023-07-29T01:44:24;3.88;;;2.00;;
38603;SDS011;24924;50.054;8.790;2023-07-29T01:46:51;4.57;;;2.30;;
38603;SDS011;24924;50.054;8.790;2023-07-29T01:49:17;4.30;;;2.15;;
38603;SDS011;24924;50.054;8.790;2023-07-29T01:51:43;3.93;;;2.07;;
38603;SDS011;24924;50.054;8.790;2023-07-29T01:54:09;3.13;;;1.50;;
38603;SDS011;24924;50.054;8.790;2023-07-29T01:56:35;4.10;;;2.13;;
38603;SDS011;24924;50.054;8.790;2023-07-29T01:59:02;3.72;;;2.03;;
38603;SDS011;24924;50.054;8.790;2023-07-29T02:01:28;3.50;;;1.90;;
38603;SDS011;24924;50.054;8.790;2023-07-29T02:03:54;3.28;;;1.65;;
38603;SDS011;24924;50.054;8.790;2023-07-29T02:06:21;3.35;;;1.67;;
38603;SDS011;24924;50.054;8.790;2023-07-29T02:08:47;3.70;;;1.95;;
38603;SDS011;24924;50.054;8.790;2023-07-29T02:11:13;3.43;;;1.63;;
38603;SDS011;24924;50.054;8.790;2023-07-29T02:13:39;3.53;;;1.75;;
38603;SDS011;24924;50.054;8.790;2023-07-29T02:16:05;3.85;;;2.22;;
38603;SDS011;24924;50.054;8.790;2023-07-29T02:18:31;4.25;;;2.10;;
38603;SDS011;24924;50.054;8.790;2023-07-29T02:20:57;3.23;;;1.67;;
38603;SDS011;24924;50.054;8.790;2023-07-29T02:23:23;3.53;;;1.98;;
38603;SDS011;24924;50.054;8.790;2023-07-29T02:25:50;6.63;;;2.10;;
38603;SDS011;24924;50.054;8.790;2023-07-29T02:28:16;3.97;;;1.70;;
38603;SDS011;24924;50.054;8.790;2023-07-29T02:30:42;3.73;;;2.07;;
38603;SDS011;24924;50.054;8.790;2023-07-29T02:33:10;5.50;;;2.10;;
38603;SDS011;24924;50.054;8.790;2023-07-29T02:35:36;3.83;;;1.45;;
38603;SDS011;24924;50.054;8.790;2023-07-29T02:38:02;3.80;;;1.90;;
38603;SDS011;24924;50.054;8.790;2023-07-29T02:40:28;3.50;;;1.83;;
38603;SDS011;24924;50.054;8.790;2023-07-29T02:42:54;4.15;;;1.92;;
38603;SDS011;24924;50.054;8.790;2023-07-29T02:45:21;5.15;;;1.90;;
38603;SDS011;24924;50.054;8.790;2023-07-29T02:47:47;3.10;;;1.33;;
38603;SDS011;24924;50.054;8.790;2023-07-29T02:50:13;3.60;;;1.80;;
38603;SDS011;24924;50.054;8.790;2023-07-29T02:52:39;3.60;;;1.60;;
38603;SDS011;24924;50.054;8.790;2023-07-29T02:55:05;3.80;;;1.90;;
38603;SDS011;24924;50.054;8.790;2023-07-29T02:57:31;3.92;;;1.65;;
38603;SDS011;24924;50.054;8.790;2023-07-29T02:59:57;3.67;;;1.90;;
38603;SDS011;24924;50.054;8.790;2023-07-29T03:02:23;4.72;;;2.00;;
38603;SDS011;24924;50.054;8.790;2023-07-29T03:04:49;3.92;;;1.95;;
38603;SDS011;24924;50.054;8.790;2023-07-29T03:07:15;4.22;;;2.22;;
38603;SDS011;24924;50.054;8.790;2023-07-29T03:09:42;4.00;;;2.10;;
38603;SDS011;24924;50.054;8.790;2023-07-29T03:12:08;5.40;;;2.00;;
38603;SDS011;24924;50.054;8.790;2023-07-29T03:14:33;3.05;;;1.42;;
38603;SDS011;24924;50.054;8.790;2023-07-29T03:17:03;3.45;;;1.65;;
38603;SDS011;24924;50.054;8.790;2023-07-29T03:19:31;2.90;;;1.30;;
38603;SDS011;24924;50.054;8.790;2023-07-29T03:21:57;4.38;;;1.70;;
38603;SDS011;24924;50.054;8.790;2023-07-29T03:24:23;3.10;;;1.42;;
38603;SDS011;24924;50.054;8.790;2023-07-29T03:26:49;4.43;;;1.60;;
38603;SDS011;24924;50.054;8.790;2023-07-29T03:29:15;3.83;;;1.63;;
38603;SDS011;24924;50.054;8.790;2023-07-29T03:31:41;3.05;;;1.38;;
38603;SDS011;24924;50.054;8.790;2023-07-29T03:34:06;3.70;;;1.63;;
38603;SDS011;24924;50.054;8.790;2023-07-29T03:36:33;2.97;;;1.30;;
38603;SDS011;24924;50.054;8.790;2023-07-29T03:38:59;3.20;;;1.42;;
38603;SDS011;24924;50.054;8.790;2023-07-29T03:41:25;2.85;;;1.23;;
38603;SDS011;24924;50.054;8.790;2023-07-29T03:43:51;3.23;;;1.53;;
38603;SDS011;24924;50.054;8.790;2023-07-29T03:46:17;3.20;;;1.50;;
38603;SDS011;24924;50.054;8.790;2023-07-29T03:48:45;3.10;;;1.50;;
38603;SDS011;24924;50.054;8.790;2023-07-29T03:51:11;3.80;;;1.70;;
38603;SDS011;24924;50.054;8.790;2023-07-29T03:53:38;4.28;;;1.95;;
38603;SDS011;24924;50.054;8.790;2023-07-29T03:56:03;3.47;;;1.60;;
38603;SDS011;24924;50.054;8.790;2023-07-29T03:58:29;3.90;;;1.50;;
38603;SDS011;24924;50.054;8.790;2023-07-29T04:00:55;3.47;;;1.50;;
38603;SDS011;24924;50.054;8.790;2023-07-29T04:03:21;3.22;;;1.50;;
38603;SDS011;24924;50.054;8.790;2023-07-29T04:05:50;3.10;;;1.48;;
38603;SDS011;24924;50.054;8.790;2023-07-29T04:08:16;3.63;;;1.70;;
38603;SDS011;24924;50.054;8.790;2023-07-29T04:10:42;3.13;;;1.55;;
38603;SDS011;24924;50.054;8.790;2023-07-29T04:13:08;3.42;;;1.50;;
38603;SDS011;24924;50.054;8.790;2023-07-29T04:15:34;3.20;;;1.40;;
38603;SDS011;24924;50.054;8.790;2023-07-29T04:17:59;3.47;;;1.73;;
38603;SDS011;24924;50.054;8.790;2023-07-29T04:20:25;3.20;;;1.60;;
38603;SDS011;24924;50.054;8.790;2023-07-29T04:22:51;3.33;;;1.63;;
38603;SDS011;24924;50.054;8.790;2023-07-29T04:25:18;3.30;;;1.40;;
38603;SDS011;24924;50.054;8.790;2023-07-29T04:27:44;3.00;;;1.30;;
38603;SDS011;24924;50.054;8.790;2023-07-29T04:30:09;3.33;;;1.40;;
38603;SDS011;24924;50.054;8.790;2023-07-29T04:32:36;3.72;;;1.65;;
38603;SDS011;24924;50.054;8.790;2023-07-29T04:35:06;3.25;;;1.45;;
38603;SDS011;24924;50.054;8.790;2023-07-29T04:37:35;3.38;;;1.58;;
38603;SDS011;24924;50.054;8.790;2023-07-29T04:40:01;3.50;;;1.73;;
38603;SDS011;24924;50.054;8.790;2023-07-29T04:42:27;3.40;;;1.60;;
38603;SDS011;24924;50.054;8.790;2023-07-29T04:44:53;4.25;;;1.90;;
38603;SDS011;24924;50.054;8.790;2023-07-29T04:47:19;4.27;;;1.90;;
38603;SDS011;24924;50.054;8.790;2023-07-29T04:49:44;4.55;;;1.85;;
38603;SDS011;24924;50.054;8.790;2023-07-29T04:52:10;3.58;;;1.48;;
38603;SDS011;24924;50.054;8.790;2023-07-29T04:54:36;3.67;;;1.30;;
38603;SDS011;24924;50.054;8.790;2023-07-29T04:57:02;3.35;;;1.88;;
38603;SDS011;24924;50.054;8.790;2023-07-29T04:59:28;3.92;;;1.92;;
38603;SDS011;24924;50.054;8.790;2023-07-29T05:01:54;3.42;;;1.52;;
38603;SDS011;24924;50.054;8.790;2023-07-29T05:04:20;6.50;;;1.90;;
38603;SDS011;24924;50.054;8.790;2023-07-29T05:06:45;3.30;;;1.50;;
38603;SDS011;24924;50.054;8.790;2023-07-29T05:09:12;3.80;;;1.93;;
38603;SDS011;24924;50.054;8.790;2023-07-29T05:11:41;4.03;;;1.85;;
38603;SDS011;24924;50.054;8.790;2023-07-29T05:14:10;3.78;;;1.75;;
38603;SDS011;24924;50.054;8.790;2023-07-29T05:16:37;3.38;;;1.70;;
38603;SDS011;24924;50.054;8.790;2023-07-29T05:19:04;3.57;;;1.77;;
38603;SDS011;24924;50.054;8.790;2023-07-29T05:21:33;3.30;;;1.52;;
38603;SDS011;24924;50.054;8.790;2023-07-29T05:23:59;4.35;;;2.05;;
38603;SDS011;24924;50.054;8.790;2023-07-29T05:26:25;4.63;;;2.17;;
38603;SDS011;24924;50.054;8.790;2023-07-29T05:28:51;3.70;;;1.80;;
38603;SDS011;24924;50.054;8.790;2023-07-29T05:31:17;3.53;;;1.73;;
38603;SDS011;24924;50.054;8.790;2023-07-29T05:33:43;4.03;;;2.05;;
38603;SDS011;24924;50.054;8.790;2023-07-29T05:36:09;4.00;;;2.20;;
38603;SDS011;24924;50.054;8.790;2023-07-29T05:38:35;3.92;;;2.08;;
38603;SDS011;24924;50.054;8.790;2023-07-29T05:41:01;3.90;;;1.90;;
38603;SDS011;24924;50.054;8.790;2023-07-29T05:43:27;3.42;;;1.50;;
38603;SDS011;24924;50.054;8.790;2023-07-29T05:45:53;3.70;;;1.80;;
38603;SDS011;24924;50.054;8.790;2023-07-29T05:48:20;4.53;;;2.05;;
38603;SDS011;24924;50.054;8.790;2023-07-29T05:50:46;4.65;;;1.92;;
38603;SDS011;24924;50.054;8.790;2023-07-29T05:53:12;4.63;;;2.08;;
38603;SDS011;24924;50.054;8.790;2023-07-29T05:55:38;3.20;;;1.50;;
38603;SDS011;24924;50.054;8.790;2023-07-29T05:58:03;3.80;;;1.55;;
38603;SDS011;24924;50.054;8.790;2023-07-29T06:00:29;3.67;;;2.00;;
38603;SDS011;24924;50.054;8.790;2023-07-29T06:02:55;3.80;;;1.67;;
38603;SDS011;24924;50.054;8.790;2023-07-29T06:05:21;3.60;;;1.63;;
38603;SDS011;24924;50.054;8.790;2023-07-29T06:07:47;3.58;;;1.55;;
38603;SDS011;24924;50.054;8.790;2023-07-29T06:10:14;3.65;;;1.80;;
38603;SDS011;24924;50.054;8.790;2023-07-29T06:12:44;4.27;;;2.00;;
38603;SDS011;24924;50.054;8.790;2023-07-29T06:15:11;3.53;;;1.50;;
38603;SDS011;24924;50.054;8.790;2023-07-29T06:17:37;5.07;;;1.77;;
38603;SDS011;24924;50.054;8.790;2023-07-29T06:20:04;4.88;;;2.13;;
38603;SDS011;24924;50.054;8.790;2023-07-29T06:22:31;3.67;;;1.60;;
38603;SDS011;24924;50.054;8.790;2023-07-29T06:24:57;4.10;;;1.90;;
38603;SDS011;24924;50.054;8.790;2023-07-29T06:27:23;3.72;;;1.77;;
38603;SDS011;24924;50.054;8.790;2023-07-29T06:29:50;3.50;;;1.70;;
38603;SDS011;24924;50.054;8.790;2023-07-29T06:32:16;3.15;;;1.35;;
38603;SDS011;24924;50.054;8.790;2023-07-29T06:34:42;3.03;;;1.40;;
38603;SDS011;24924;50.054;8.790;2023-07-29T06:37:08;5.50;;;1.95;;
38603;SDS011;24924;50.054;8.790;2023-07-29T06:39:33;3.93;;;1.67;;
38603;SDS011;24924;50.054;8.790;2023-07-29T06:41:59;3.85;;;1.90;;
38603;SDS011;24924;50.054;8.790;2023-07-29T06:44:25;4.18;;;1.73;;
38603;SDS011;24924;50.054;8.790;2023-07-29T06:46:51;3.08;;;1.42;;
38603;SDS011;24924;50.054;8.790;2023-07-29T06:49:17;3.93;;;1.47;;
38603;SDS011;24924;50.054;8.790;2023-07-29T06:51:43;3.53;;;1.60;;
38603;SDS011;24924;50.054;8.790;2023-07-29T06:54:09;3.70;;;1.77;;
38603;SDS011;24924;50.054;8.790;2023-07-29T06:56:35;4.07;;;1.60;;
38603;SDS011;24924;50.054;8.790;2023-07-29T06:59:01;3.20;;;1.60;;
38603;SDS011;24924;50.054;8.790;2023-07-29T07:01:26;4.77;;;1.70;;
38603;SDS011;24924;50.054;8.790;2023-07-29T07:03:52;3.40;;;1.50;;
38603;SDS011;24924;50.054;8.790;2023-07-29T07:06:20;3.55;;;1.65;;
38603;SDS011;24924;50.054;8.790;2023-07-29T07:08:47;3.83;;;1.70;;
38603;SDS011;24924;50.054;8.790;2023-07-29T07:11:13;3.40;;;1.70;;
38603;SDS011;24924;50.054;8.790;2023-07-29T07:13:38;3.30;;;1.40;;
38603;SDS011;24924;50.054;8.790;2023-07-29T07:16:04;3.78;;;1.58;;
38603;SDS011;24924;50.054;8.790;2023-07-29T07:18:30;3.67;;;1.63;;
38603;SDS011;24924;50.054;8.790;2023-07-29T07:20:56;3.28;;;1.58;;
38603;SDS011;24924;50.054;8.790;2023-07-29T07:23:22;3.90;;;1.90;;
38603;SDS011;24924;50.054;8.790;2023-07-29T07:25:48;3.40;;;1.67;;
38603;SDS011;24924;50.054;8.790;2023-07-29T07:28:13;4.03;;;1.63;;
38603;SDS011;24924;50.054;8.790;2023-07-29T07:30:40;3.00;;;1.33;;
38603;SDS011;24924;50.054;8.790;2023-07-29T07:33:09;3.80;;;1.85;;
38603;SDS011;24924;50.054;8.790;2023-07-29T07:35:35;3.88;;;1.80;;
38603;SDS011;24924;50.054;8.790;2023-07-29T07:38:01;3.22;;;1.50;;
38603;SDS011;24924;50.054;8.790;2023-07-29T07:40:29;3.93;;;2.10;;
38603;SDS011;24924;50.054;8.790;2023-07-29T07:42:58;3.75;;;1.65;;
38603;SDS011;24924;50.054;8.790;2023-07-29T07:45:23;6.40;;;1.85;;
38603;SDS011;24924;50.054;8.790;2023-07-29T07:47:51;6.53;;;1.77;;
38603;SDS011;24924;50.054;8.790;2023-07-29T07:50:18;5.82;;;2.03;;
38603;SDS011;24924;50.054;8.790;2023-07-29T07:52:44;3.45;;;1.83;;
38603;SDS011;24924;50.054;8.790;2023-07-29T07:55:10;4.33;;;1.93;;
38603;SDS011;24924;50.054;8.790;2023-07-29T07:57:36;3.70;;;1.95;;
38603;SDS011;24924;50.054;8.790;2023-07-29T08:00:02;3.63;;;1.70;;
38603;SDS011;24924;50.054;8.790;2023-07-29T08:02:38;3.90;;;2.08;;
38603;SDS011;24924;50.054;8.790;2023-07-29T08:05:04;4.00;;;2.30;;
38603;SDS011;24924;50.054;8.790;2023-07-29T08:07:29;5.03;;;2.65;;
38603;SDS011;24924;50.054;8.790;2023-07-29T08:09:55;3.95;;;2.20;;
38603;SDS011;24924;50.054;8.790;2023-07-29T08:12:21;3.80;;;2.03;;
38603;SDS011;24924;50.054;8.790;2023-07-29T08:14:47;4.80;;;2.15;;
38603;SDS011;24924;50.054;8.790;2023-07-29T08:17:13;4.93;;;2.13;;
38603;SDS011;24924;50.054;8.790;2023-07-29T08:19:39;3.92;;;2.13;;
38603;SDS011;24924;50.054;8.790;2023-07-29T08:22:05;4.03;;;1.90;;
38603;SDS011;24924;50.054;8.790;2023-07-29T08:24:31;6.07;;;1.98;;
38603;SDS011;24924;50.054;8.790;2023-07-29T08:26:57;5.70;;;2.00;;
38603;SDS011;24924;50.054;8.790;2023-07-29T08:29:22;3.40;;;1.65;;
38603;SDS011;24924;50.054;8.790;2023-07-29T08:31:48;3.40;;;1.60;;
38603;SDS011;24924;50.054;8.790;2023-07-29T08:34:15;4.90;;;1.63;;
38603;SDS011;24924;50.054;8.790;2023-07-29T08:36:41;3.90;;;1.70;;
38603;SDS011;24924;50.054;8.790;2023-07-29T08:39:06;3.23;;;1.50;;
38603;SDS011;24924;50.054;8.790;2023-07-29T08:42:14;3.45;;;1.55;;
38603;SDS011;24924;50.054;8.790;2023-07-29T08:44:30;3.57;;;1.53;;
38603;SDS011;24924;50.054;8.790;2023-07-29T08:47:05;5.05;;;1.63;;
38603;SDS011;24924;50.054;8.790;2023-07-29T08:49:31;3.90;;;1.60;;
38603;SDS011;24924;50.054;8.790;2023-07-29T08:51:57;3.63;;;1.70;;
38603;SDS011;24924;50.054;8.790;2023-07-29T08:54:24;3.20;;;1.45;;
38603;SDS011;24924;50.054;8.790;2023-07-29T08:56:50;3.67;;;1.20;;
38603;SDS011;24924;50.054;8.790;2023-07-29T08:59:17;3.63;;;1.50;;
38603;SDS011;24924;50.054;8.790;2023-07-29T09:01:44;3.70;;;1.70;;
38603;SDS011;24924;50.054;8.790;2023-07-29T09:04:10;3.30;;;1.47;;
38603;SDS011;24924;50.054;8.790;2023-07-29T09:06:36;3.15;;;1.38;;
38603;SDS011;24924;50.054;8.790;2023-07-29T09:09:07;3.38;;;1.38;;
38603;SDS011;24924;50.054;8.790;2023-07-29T09:11:33;3.17;;;1.55;;
38603;SDS011;24924;50.054;8.790;2023-07-29T09:13:59;3.28;;;1.33;;
38603;SDS011;24924;50.054;8.790;2023-07-29T09:16:25;2.93;;;1.27;;
38603;SDS011;24924;50.054;8.790;2023-07-29T09:18:51;3.55;;;1.25;;
38603;SDS011;24924;50.054;8.790;2023-07-29T09:21:17;3.67;;;1.27;;
38603;SDS011;24924;50.054;8.790;2023-07-29T09:23:49;3.27;;;1.40;;
38603;SDS011;24924;50.054;8.790;2023-07-29T09:26:21;2.70;;;1.00;;
38603;SDS011;24924;50.054;8.790;2023-07-29T09:28:52;2.97;;;1.27;;
38603;SDS011;24924;50.054;8.790;2023-07-29T09:31:20;2.80;;;1.10;;
38603;SDS011;24924;50.054;8.790;2023-07-29T09:33:47;2.95;;;1.15;;
38603;SDS011;24924;50.054;8.790;2023-07-29T09:36:13;2.90;;;1.17;;
38603;SDS011;24924;50.054;8.790;2023-07-29T09:38:39;3.10;;;1.30;;
38603;SDS011;24924;50.054;8.790;2023-07-29T09:41:05;2.92;;;1.08;;
38603;SDS011;24924;50.054;8.790;2023-07-29T09:43:31;3.10;;;1.23;;
38603;SDS011;24924;50.054;8.790;2023-07-29T09:46:02;3.10;;;1.20;;
38603;SDS011;24924;50.054;8.790;2023-07-29T09:48:32;2.90;;;1.23;;
38603;SDS011;24924;50.054;8.790;2023-07-29T09:50:59;3.05;;;1.20;;
38603;SDS011;24924;50.054;8.790;2023-07-29T09:53:34;3.30;;;1.25;;
38603;SDS011;24924;50.054;8.790;2023-07-29T09:56:05;3.13;;;1.30;;
38603;SDS011;24924;50.054;8.790;2023-07-29T09:58:31;2.95;;;1.25;;
38603;SDS011;24924;50.054;8.790;2023-07-29T10:00:58;3.72;;;1.55;;
38603;SDS011;24924;50.054;8.790;2023-07-29T10:03:24;3.20;;;1.35;;
38603;SDS011;24924;50.054;8.790;2023-07-29T10:05:51;3.20;;;1.40;;
38603;SDS011;24924;50.054;8.790;2023-07-29T10:08:17;3.17;;;1.20;;
38603;SDS011;24924;50.054;8.790;2023-07-29T10:10:44;3.20;;;1.40;;
38603;SDS011;24924;50.054;8.790;2023-07-29T10:13:10;3.30;;;1.40;;
38603;SDS011;24924;50.054;8.790;2023-07-29T10:15:37;2.90;;;1.20;;
38603;SDS011;24924;50.054;8.790;2023-07-29T10:18:03;3.10;;;1.50;;
38603;SDS011;24924;50.054;8.790;2023-07-29T10:20:30;3.00;;;1.10;;
38603;SDS011;24924;50.054;8.790;2023-07-29T10:22:59;3.10;;;1.13;;
38603;SDS011;24924;50.054;8.790;2023-07-29T10:25:26;3.63;;;1.13;;
38603;SDS011;24924;50.054;8.790;2023-07-29T10:28:04;3.10;;;1.30;;
38603;SDS011;24924;50.054;8.790;2023-07-29T10:30:31;2.80;;;1.00;;
38603;SDS011;24924;50.054;8.790;2023-07-29T10:32:58;3.65;;;1.40;;
38603;SDS011;24924;50.054;8.790;2023-07-29T10:35:26;2.77;;;1.00;;
38603;SDS011;24924;50.054;8.790;2023-07-29T10:37:52;2.67;;;1.00;;
38603;SDS011;24924;50.054;8.790;2023-07-29T10:40:19;2.90;;;1.05;;
38603;SDS011;24924;50.054;8.790;2023-07-29T10:45:35;2.88;;;1.10;;
38603;SDS011;24924;50.054;8.790;2023-07-29T10:53:58;2.70;;;1.00;;
38603;SDS011;24924;50.054;8.790;2023-07-29T10:56:26;2.85;;;1.00;;
38603;SDS011;24924;50.054;8.790;2023-07-29T10:58:55;2.80;;;0.93;;
38603;SDS011;24924;50.054;8.790;2023-07-29T11:01:42;4.60;;;1.33;;
38603;SDS011;24924;50.054;8.790;2023-07-29T11:07:52;3.05;;;1.08;;
38603;SDS011;24924;50.054;8.790;2023-07-29T11:10:00;2.85;;;0.95;;
38603;SDS011;24924;50.054;8.790;2023-07-29T11:15:25;4.40;;;1.50;;
38603;SDS011;24924;50.054;8.790;2023-07-29T11:18:00;3.30;;;1.10;;
38603;SDS011;24924;50.054;8.790;2023-07-29T11:20:27;3.70;;;1.40;;
38603;SDS011;24924;50.054;8.790;2023-07-29T11:22:55;2.97;;;1.13;;
38603;SDS011;24924;50.054;8.790;2023-07-29T11:25:24;3.20;;;1.13;;
38603;SDS011;24924;50.054;8.790;2023-07-29T11:27:51;3.40;;;1.40;;
38603;SDS011;24924;50.054;8.790;2023-07-29T11:30:18;2.80;;;1.10;;
38603;SDS011;24924;50.054;8.790;2023-07-29T11:32:44;2.83;;;1.20;;
38603;SDS011;24924;50.054;8.790;2023-07-29T11:35:12;3.65;;;1.35;;
38603;SDS011;24924;50.054;8.790;2023-07-29T11:37:40;3.53;;;1.50;;
38603;SDS011;24924;50.054;8.790;2023-07-29T11:40:07;3.63;;;1.43;;
38603;SDS011;24924;50.054;8.790;2023-07-29T11:42:36;3.22;;;1.25;;
38603;SDS011;24924;50.054;8.790;2023-07-29T11:45:03;3.05;;;1.20;;
38603;SDS011;24924;50.054;8.790;2023-07-29T11:47:31;4.15;;;1.27;;
38603;SDS011;24924;50.054;8.790;2023-07-29T11:50:04;3.65;;;1.42;;
38603;SDS011;24924;50.054;8.790;2023-07-29T11:52:32;4.03;;;1.40;;
38603;SDS011;24924;50.054;8.790;2023-07-29T11:54:58;3.20;;;1.23;;
38603;SDS011;24924;50.054;8.790;2023-07-29T11:57:26;3.50;;;1.40;;
38603;SDS011;24924;50.054;8.790;2023-07-29T11:59:52;3.45;;;1.30;;
38603;SDS011;24924;50.054;8.790;2023-07-29T12:02:18;3.27;;;1.20;;
38603;SDS011;24924;50.054;8.790;2023-07-29T12:04:46;3.10;;;1.20;;
38603;SDS011;24924;50.054;8.790;2023-07-29T12:07:13;3.47;;;1.55;;
38603;SDS011;24924;50.054;8.790;2023-07-29T12:09:40;3.20;;;1.35;;
38603;SDS011;24924;50.054;8.790;2023-07-29T12:12:07;3.58;;;1.48;;
38603;SDS011;24924;50.054;8.790;2023-07-29T12:14:33;3.60;;;1.23;;
38603;SDS011;24924;50.054;8.790;2023-07-29T12:17:00;3.25;;;1.40;;
38603;SDS011;24924;50.054;8.790;2023-07-29T12:19:33;3.10;;;1.15;;
38603;SDS011;24924;50.054;8.790;2023-07-29T12:22:04;3.15;;;1.25;;
38603;SDS011;24924;50.054;8.790;2023-07-29T12:24:32;3.63;;;1.37;;
38603;SDS011;24924;50.054;8.790;2023-07-29T12:26:59;3.63;;;1.10;;
38603;SDS011;24924;50.054;8.790;2023-07-29T12:29:25;3.33;;;1.20;;
38603;SDS011;24924;50.054;8.790;2023-07-29T12:31:58;3.10;;;1.15;;
38603;SDS011;24924;50.054;8.790;2023-07-29T12:34:25;3.03;;;0.98;;
38603;SDS011;24924;50.054;8.790;2023-07-29T12:36:53;3.10;;;1.20;;
38603;SDS011;24924;50.054;8.790;2023-07-29T12:41:53;2.90;;;1.20;;
38603;SDS011;24924;50.054;8.790;2023-07-29T12:44:20;3.47;;;1.42;;
38603;SDS011;24924;50.054;8.790;2023-07-29T12:46:47;3.15;;;1.30;;
38603;SDS011;24924;50.054;8.790;2023-07-29T12:49:13;3.10;;;1.20;;
38603;SDS011;24924;50.054;8.790;2023-07-29T12:51:39;3.08;;;1.23;;
38603;SDS011;24924;50.054;8.790;2023-07-29T12:54:05;2.90;;;1.40;;
38603;SDS011;24924;50.054;8.790;2023-07-29T12:56:31;2.95;;;1.10;;
38603;SDS011;24924;50.054;8.790;2023-07-29T12:58:58;3.20;;;1.30;;
38603;SDS011;24924;50.054;8.790;2023-07-29T13:01:24;4.13;;;1.03;;
38603;SDS011;24924;50.054;8.790;2023-07-29T13:03:50;3.60;;;1.23;;
38603;SDS011;24924;50.054;8.790;2023-07-29T13:06:16;2.90;;;1.10;;
38603;SDS011;24924;50.054;8.790;2023-07-29T13:08:42;2.95;;;1.20;;
38603;SDS011;24924;50.054;8.790;2023-07-29T13:11:08;2.90;;;1.20;;
38603;SDS011;24924;50.054;8.790;2023-07-29T13:13:34;3.30;;;1.03;;
38603;SDS011;24924;50.054;8.790;2023-07-29T13:16:00;3.00;;;1.10;;
38603;SDS011;24924;50.054;8.790;2023-07-29T13:18:26;3.53;;;0.98;;
38603;SDS011;24924;50.054;8.790;2023-07-29T13:20:52;2.73;;;0.87;;
38603;SDS011;24924;50.054;8.790;2023-07-29T13:23:19;2.95;;;1.00;;
38603;SDS011;24924;50.054;8.790;2023-07-29T13:25:45;3.35;;;1.20;;
38603;SDS011;24924;50.054;8.790;2023-07-29T13:28:10;2.97;;;1.07;;
38603;SDS011;24924;50.054;8.790;2023-07-29T13:30:40;2.53;;;0.80;;
38603;SDS011;24924;50.054;8.790;2023-07-29T13:33:06;2.75;;;0.98;;
38603;SDS011;24924;50.054;8.790;2023-07-29T13:35:33;3.60;;;1.10;;
38603;SDS011;24924;50.054;8.790;2023-07-29T13:37:59;2.80;;;1.07;;
38603;SDS011;24924;50.054;8.790;2023-07-29T13:40:26;3.70;;;1.40;;
38603;SDS011;24924;50.054;8.790;2023-07-29T13:42:52;3.10;;;1.00;;
38603;SDS011;24924;50.054;8.790;2023-07-29T13:45:18;3.00;;;1.17;;
38603;SDS011;24924;50.054;8.790;2023-07-29T13:47:44;3.43;;;1.37;;
38603;SDS011;24924;50.054;8.790;2023-07-29T13:50:10;3.53;;;1.35;;
38603;SDS011;24924;50.054;8.790;2023-07-29T13:52:37;3.60;;;1.17;;
38603;SDS011;24924;50.054;8.790;2023-07-29T13:55:03;2.77;;;0.87;;
38603;SDS011;24924;50.054;8.790;2023-07-29T13:57:29;3.00;;;1.10;;
38603;SDS011;24924;50.054;8.790;2023-07-29T13:59:55;3.20;;;1.10;;
38603;SDS011;24924;50.054;8.790;2023-07-29T14:02:21;3.00;;;1.17;;
38603;SDS011;24924;50.054;8.790;2023-07-29T14:04:47;3.97;;;1.10;;
38603;SDS011;24924;50.054;8.790;2023-07-29T14:07:13;3.25;;;1.10;;
38603;SDS011;24924;50.054;8.790;2023-07-29T14:09:38;3.40;;;1.20;;
38603;SDS011;24924;50.054;8.790;2023-07-29T14:12:06;3.47;;;1.15;;
38603;SDS011;24924;50.054;8.790;2023-07-29T14:14:32;3.67;;;1.10;;
38603;SDS011;24924;50.054;8.790;2023-07-29T14:16:57;3.63;;;1.23;;
38603;SDS011;24924;50.054;8.790;2023-07-29T14:19:23;3.95;;;1.15;;
38603;SDS011;24924;50.054;8.790;2023-07-29T14:21:49;3.00;;;1.00;;
38603;SDS011;24924;50.054;8.790;2023-07-29T14:24:15;3.53;;;1.20;;
38603;SDS011;24924;50.054;8.790;2023-07-29T14:26:42;3.00;;;1.20;;
38603;SDS011;24924;50.054;8.790;2023-07-29T14:29:07;3.10;;;1.17;;
38603;SDS011;24924;50.054;8.790;2023-07-29T14:31:33;2.90;;;1.10;;
38603;SDS011;24924;50.054;8.790;2023-07-29T14:33:59;2.70;;;0.98;;
38603;SDS011;24924;50.054;8.790;2023-07-29T14:36:25;2.97;;;1.00;;
38603;SDS011;24924;50.054;8.790;2023-07-29T14:38:51;2.85;;;0.88;;
38603;SDS011;24924;50.054;8.790;2023-07-29T14:41:17;2.67;;;1.00;;
38603;SDS011;24924;50.054;8.790;2023-07-29T14:43:43;3.35;;;1.23;;
38603;SDS011;24924;50.054;8.790;2023-07-29T14:46:09;3.57;;;1.10;;
38603;SDS011;24924;50.054;8.790;2023-07-29T14:48:35;3.30;;;1.10;;
38603;SDS011;24924;50.054;8.790;2023-07-29T14:51:01;2.80;;;0.90;;
38603;SDS011;24924;50.054;8.790;2023-07-29T14:53:27;3.10;;;1.13;;
38603;SDS011;24924;50.054;8.790;2023-07-29T14:55:52;3.25;;;1.10;;
38603;SDS011;24924;50.054;8.790;2023-07-29T14:58:19;2.95;;;1.00;;
38603;SDS011;24924;50.054;8.790;2023-07-29T15:00:46;3.10;;;1.07;;
38603;SDS011;24924;50.054;8.790;2023-07-29T15:03:11;3.38;;;1.10;;
38603;SDS011;24924;50.054;8.790;2023-07-29T15:05:37;3.37;;;1.10;;
38603;SDS011;24924;50.054;8.790;2023-07-29T15:08:03;2.90;;;1.00;;